»·PEaware :: N65415 KSAN-KSNA

N65415 :: KSAN-KSNA

FLIGHT INFORMATION

Flight Status: Arrived
Operator: Privately registered:
United States
More flights under this callsign
Pilot: Stephane C. (508)
Aircraft: CESSNA 172 SKYHAWK
(C172)
More flights by this aircraft type
Origin: KSAN San Diego Intl-Lindbergh
United States
Destination: KSNA John Wayne-Orange Co
United States
More flights between these airports :: More routes between these airports
Route: +OCN V23 SLI
File this flight plan on PilotEdge
Remarks:
Altitude:
(Current/Filed)
6,000ft
Speed:
(Current/Filed)
110kts
Departed: 06-Jan-18 10:17 AM
Arrived: 06-Jan-18 10:58 AM
Distance/Time
Traveled:
66nm/0:41
Distance/Time
To Go:
Arrived

Flight Plot

Page will automatically refresh every two minutes.


Map Options




Map Legend


Flown Route
Filed Route
Departure Airport
Arrival Airport
Navaid (VOR, NDB)
Fix

Horizontal Profiles

Position Reports

Time Latitude Longitude Heading Altitude Ground
Speed
06-Jan-18 10:05 32.732223 -117.177269 195 27ft 0kts
06-Jan-18 10:06 32.732223 -117.177269 195 27ft 0kts
06-Jan-18 10:07 32.732223 -117.177269 195 27ft 0kts
06-Jan-18 10:08 32.732223 -117.177269 195 27ft 0kts
06-Jan-18 10:09 32.732223 -117.177269 195 27ft 0kts
06-Jan-18 10:10 32.732223 -117.177269 195 27ft 0kts
06-Jan-18 10:11 32.732223 -117.177269 195 27ft 0kts
06-Jan-18 10:12 32.732223 -117.177269 195 27ft 0kts
06-Jan-18 10:13 32.732223 -117.177269 195 27ft 0kts
06-Jan-18 10:14 32.732223 -117.177269 195 27ft 0kts
06-Jan-18 10:15 32.732223 -117.177269 195 27ft 0kts
06-Jan-18 10:16 32.732223 -117.177269 195 27ft 0kts
06-Jan-18 10:17 32.732223 -117.177269 195 27ft 0kts
06-Jan-18 10:18 32.731988 -117.177350 194 26ft 9kts
06-Jan-18 10:19 32.731059 -117.175395 256 27ft 0kts
06-Jan-18 10:20 32.731059 -117.175395 256 27ft 0kts
06-Jan-18 10:21 32.730872 -117.175413 156 27ft 0kts
06-Jan-18 10:22 32.730207 -117.175359 225 24ft 11kts
06-Jan-18 10:23 32.732104 -117.183718 287 143ft 71kts
06-Jan-18 10:24 32.743236 -117.206203 319 839ft 86kts
06-Jan-18 10:25 32.760469 -117.224933 319 1634ft 85kts
06-Jan-18 10:26 32.780303 -117.244970 323 1974ft 107kts
06-Jan-18 10:27 32.799942 -117.265321 320 2647ft 83kts
06-Jan-18 10:28 32.816901 -117.282606 319 3401ft 80kts
06-Jan-18 10:29 32.833540 -117.299840 321 4117ft 79kts
06-Jan-18 10:30 32.850080 -117.316521 343 4805ft 81kts
06-Jan-18 10:31 32.870715 -117.324001 342 5490ft 79kts
06-Jan-18 10:32 32.892370 -117.331870 341 5982ft 95kts
06-Jan-18 10:33 32.920437 -117.342044 343 5992ft 110kts
06-Jan-18 10:34 32.950553 -117.347925 349 6013ft 110kts
06-Jan-18 10:35 32.980479 -117.355314 348 6036ft 110kts
06-Jan-18 10:36 33.010611 -117.362411 348 6015ft 111kts
06-Jan-18 10:37 33.040757 -117.368670 348 5990ft 110kts
06-Jan-18 10:38 33.070933 -117.374211 350 5924ft 111kts
06-Jan-18 10:39 33.100095 -117.379574 346 5953ft 106kts
06-Jan-18 10:40 33.124303 -117.387628 345 5968ft 105kts
06-Jan-18 10:41 33.152933 -117.394856 344 5992ft 104kts
06-Jan-18 10:42 33.180801 -117.403514 345 6035ft 103kts
06-Jan-18 10:43 33.209697 -117.409689 348 5994ft 105kts
06-Jan-18 10:44 33.238499 -117.416959 346 5972ft 105kts
06-Jan-18 10:45 33.256532 -117.435051 321 6025ft 102kts
06-Jan-18 10:46 33.279913 -117.464026 313 6049ft 105kts
06-Jan-18 10:47 33.296074 -117.486177 316 6032ft 105kts
06-Jan-18 10:48 33.319763 -117.516532 320 6008ft 105kts
06-Jan-18 10:49 33.341653 -117.540508 323 5975ft 107kts
06-Jan-18 10:50 33.363329 -117.558297 331 5655ft 132kts
06-Jan-18 10:51 33.398225 -117.582114 330 5148ft 151kts
06-Jan-18 10:52 33.434646 -117.607613 331 4371ft 151kts
06-Jan-18 10:53 33.473996 -117.635434 330 4013ft 129kts
06-Jan-18 10:54 33.498641 -117.652390 331 3957ft 133kts
06-Jan-18 10:55 33.529738 -117.673980 330 3951ft 129kts
06-Jan-18 10:56 33.561431 -117.694204 333 3944ft 128kts
06-Jan-18 10:57 33.591666 -117.715848 321 4006ft 127kts
06-Jan-18 10:58 33.620985 -117.741556 325 3744ft 136kts
06-Jan-18 10:59 33.652670 -117.767424 322 3025ft 140kts
06-Jan-18 11:00 33.672634 -117.798889 302 2200ft 97kts
06-Jan-18 11:01 33.684167 -117.822664 297 1447ft 78kts
06-Jan-18 11:02 33.693057 -117.846053 287 819ft 76kts
06-Jan-18 11:03 33.686353 -117.862121 205 200ft 61kts
06-Jan-18 11:04 33.678036 -117.868221 297 49ft 7kts
06-Jan-18 11:05 33.675546 -117.870418 207 49ft 17kts
06-Jan-18 11:06 33.672943 -117.872753 192 49ft 4kts
06-Jan-18 11:07 33.672787 -117.872844 208 49ft 0kts
06-Jan-18 11:08 33.672787 -117.872844 208 49ft 0kts

Navigation Log

Ident Type
1. KSAN Airport
2. OCN Navaid
3. KELPS Fix
4. DANAH Fix
5. KRAUZ Fix
6. BALBO Fix
7. MIDDS Fix
8. SLI Navaid
9. KSNA Airport